sensor_id;sensor_type;location;lat;lon;timestamp;pressure;altitude;pressure_sealevel;temperature;humidity
32324;BME280;25666;44.350;9.222;2023-09-07T00:00:42;101844.72;;;20.22;100.00
32324;BME280;25666;44.350;9.222;2023-09-07T00:03:07;101830.88;;;20.10;100.00
32324;BME280;25666;44.350;9.222;2023-09-07T00:05:33;101834.66;;;20.25;100.00
32324;BME280;25666;44.350;9.222;2023-09-07T00:07:58;101835.31;;;20.11;100.00
32324;BME280;25666;44.350;9.222;2023-09-07T00:10:25;101834.56;;;20.18;100.00
32324;BME280;25666;44.350;9.222;2023-09-07T00:12:51;101833.41;;;20.22;100.00
32324;BME280;25666;44.350;9.222;2023-09-07T00:15:17;101824.81;;;20.12;100.00
32324;BME280;25666;44.350;9.222;2023-09-07T00:17:45;101823.19;;;20.07;100.00
32324;BME280;25666;44.350;9.222;2023-09-07T00:20:10;101818.31;;;20.04;100.00
32324;BME280;25666;44.350;9.222;2023-09-07T00:22:37;101812.69;;;20.11;100.00
32324;BME280;25666;44.350;9.222;2023-09-07T00:25:03;101812.16;;;19.95;100.00
32324;BME280;25666;44.350;9.222;2023-09-07T00:27:30;101810.25;;;20.06;100.00
32324;BME280;25666;44.350;9.222;2023-09-07T00:29:55;101806.22;;;20.07;100.00
32324;BME280;25666;44.350;9.222;2023-09-07T00:32:21;101805.81;;;20.09;100.00
32324;BME280;25666;44.350;9.222;2023-09-07T00:34:46;101798.41;;;19.94;100.00
32324;BME280;25666;44.350;9.222;2023-09-07T00:37:12;101808.94;;;19.97;100.00
32324;BME280;25666;44.350;9.222;2023-09-07T00:39:41;101810.63;;;20.05;100.00
32324;BME280;25666;44.350;9.222;2023-09-07T00:42:06;101808.63;;;20.09;100.00
32324;BME280;25666;44.350;9.222;2023-09-07T00:44:32;101812.81;;;20.22;100.00
32324;BME280;25666;44.350;9.222;2023-09-07T00:46:57;101813.06;;;20.06;100.00
32324;BME280;25666;44.350;9.222;2023-09-07T00:49:24;101813.97;;;20.14;100.00
32324;BME280;25666;44.350;9.222;2023-09-07T00:51:51;101815.00;;;19.99;100.00
32324;BME280;25666;44.350;9.222;2023-09-07T00:54:17;101815.91;;;20.06;100.00
32324;BME280;25666;44.350;9.222;2023-09-07T00:56:43;101814.75;;;20.11;100.00
32324;BME280;25666;44.350;9.222;2023-09-07T00:59:09;101826.75;;;20.01;100.00
32324;BME280;25666;44.350;9.222;2023-09-07T01:01:36;101823.63;;;20.13;100.00
32324;BME280;25666;44.350;9.222;2023-09-07T01:04:02;101819.63;;;20.17;100.00
32324;BME280;25666;44.350;9.222;2023-09-07T01:06:38;101821.47;;;19.99;100.00
32324;BME280;25666;44.350;9.222;2023-09-07T01:09:10;101817.91;;;20.06;100.00
32324;BME280;25666;44.350;9.222;2023-09-07T01:11:39;101813.06;;;20.06;100.00
32324;BME280;25666;44.350;9.222;2023-09-07T01:14:04;101815.28;;;19.87;100.00
32324;BME280;25666;44.350;9.222;2023-09-07T01:16:31;101811.72;;;19.93;100.00
32324;BME280;25666;44.350;9.222;2023-09-07T01:19:01;101807.31;;;19.96;100.00
32324;BME280;25666;44.350;9.222;2023-09-07T01:21:33;101806.25;;;19.74;100.00
32324;BME280;25666;44.350;9.222;2023-09-07T01:24:00;101807.66;;;19.91;100.00
32324;BME280;25666;44.350;9.222;2023-09-07T01:26:25;101807.13;;;19.78;100.00
32324;BME280;25666;44.350;9.222;2023-09-07T01:28:51;101809.53;;;19.76;100.00
32324;BME280;25666;44.350;9.222;2023-09-07T01:31:17;101799.06;;;19.76;100.00
32324;BME280;25666;44.350;9.222;2023-09-07T01:33:42;101804.41;;;19.52;100.00
32324;BME280;25666;44.350;9.222;2023-09-07T01:36:08;101806.06;;;19.26;100.00
32324;BME280;25666;44.350;9.222;2023-09-07T01:38:34;101796.25;;;19.43;100.00
32324;BME280;25666;44.350;9.222;2023-09-07T01:40:59;101798.78;;;19.55;100.00
32324;BME280;25666;44.350;9.222;2023-09-07T01:43:25;101798.66;;;19.41;100.00
32324;BME280;25666;44.350;9.222;2023-09-07T01:45:51;101802.06;;;19.57;100.00
32324;BME280;25666;44.350;9.222;2023-09-07T01:48:16;101808.63;;;19.68;100.00
32324;BME280;25666;44.350;9.222;2023-09-07T01:50:42;101801.53;;;19.82;100.00
32324;BME280;25666;44.350;9.222;2023-09-07T01:53:07;101799.69;;;19.63;100.00
32324;BME280;25666;44.350;9.222;2023-09-07T01:55:33;101794.97;;;19.74;100.00
32324;BME280;25666;44.350;9.222;2023-09-07T01:57:59;101805.16;;;19.82;100.00
32324;BME280;25666;44.350;9.222;2023-09-07T02:00:27;101798.78;;;19.55;100.00
32324;BME280;25666;44.350;9.222;2023-09-07T02:02:54;101800.16;;;19.68;100.00
32324;BME280;25666;44.350;9.222;2023-09-07T02:05:20;101815.59;;;19.41;100.00
32324;BME280;25666;44.350;9.222;2023-09-07T02:07:46;101808.41;;;19.47;100.00
32324;BME280;25666;44.350;9.222;2023-09-07T02:10:15;101820.25;;;19.60;100.00
32324;BME280;25666;44.350;9.222;2023-09-07T02:12:41;101810.75;;;19.42;100.00
32324;BME280;25666;44.350;9.222;2023-09-07T02:15:06;101817.03;;;19.61;100.00
32324;BME280;25666;44.350;9.222;2023-09-07T02:17:32;101806.84;;;19.53;100.00
32324;BME280;25666;44.350;9.222;2023-09-07T02:19:58;101801.84;;;19.40;100.00
32324;BME280;25666;44.350;9.222;2023-09-07T02:22:23;101810.44;;;19.20;100.00
32324;BME280;25666;44.350;9.222;2023-09-07T02:24:50;101806.44;;;19.21;100.00
32324;BME280;25666;44.350;9.222;2023-09-07T02:27:16;101807.97;;;19.15;100.00
32324;BME280;25666;44.350;9.222;2023-09-07T02:29:41;101814.59;;;19.30;100.00
32324;BME280;25666;44.350;9.222;2023-09-07T02:32:07;101811.03;;;19.37;100.00
32324;BME280;25666;44.350;9.222;2023-09-07T02:34:34;101813.19;;;19.13;100.00
32324;BME280;25666;44.350;9.222;2023-09-07T02:37:05;101813.38;;;18.98;100.00
32324;BME280;25666;44.350;9.222;2023-09-07T02:39:30;101810.41;;;19.17;100.00
32324;BME280;25666;44.350;9.222;2023-09-07T02:41:56;101807.84;;;19.08;100.00
32324;BME280;25666;44.350;9.222;2023-09-07T02:44:21;101816.91;;;19.21;100.00
32324;BME280;25666;44.350;9.222;2023-09-07T02:46:48;101807.81;;;19.35;100.00
32324;BME280;25666;44.350;9.222;2023-09-07T02:49:13;101803.28;;;18.97;100.00
32324;BME280;25666;44.350;9.222;2023-09-07T02:51:39;101810.78;;;19.15;100.00
32324;BME280;25666;44.350;9.222;2023-09-07T02:54:05;101814.41;;;19.16;100.00
32324;BME280;25666;44.350;9.222;2023-09-07T02:56:32;101811.13;;;19.10;100.00
32324;BME280;25666;44.350;9.222;2023-09-07T02:58:57;101812.06;;;19.21;100.00
32324;BME280;25666;44.350;9.222;2023-09-07T03:01:23;101814.53;;;19.26;100.00
32324;BME280;25666;44.350;9.222;2023-09-07T03:03:49;101811.00;;;19.33;100.00
32324;BME280;25666;44.350;9.222;2023-09-07T03:06:16;101812.31;;;19.09;100.00
32324;BME280;25666;44.350;9.222;2023-09-07T03:08:47;101816.44;;;19.15;100.00
32324;BME280;25666;44.350;9.222;2023-09-07T03:11:13;101811.72;;;19.26;100.00
32324;BME280;25666;44.350;9.222;2023-09-07T03:13:40;101821.91;;;19.05;100.00
32324;BME280;25666;44.350;9.222;2023-09-07T03:16:05;101821.44;;;18.99;100.00
32324;BME280;25666;44.350;9.222;2023-09-07T03:18:31;101820.38;;;19.11;100.00
32324;BME280;25666;44.350;9.222;2023-09-07T03:20:59;101820.84;;;19.13;100.00
32324;BME280;25666;44.350;9.222;2023-09-07T03:23:29;101821.78;;;19.24;100.00
32324;BME280;25666;44.350;9.222;2023-09-07T03:25:57;101809.28;;;19.25;100.00
32324;BME280;25666;44.350;9.222;2023-09-07T03:28:24;101811.34;;;19.28;100.00
32324;BME280;25666;44.350;9.222;2023-09-07T03:30:55;101821.59;;;19.10;100.00
32324;BME280;25666;44.350;9.222;2023-09-07T03:33:23;101821.41;;;19.25;100.00
32324;BME280;25666;44.350;9.222;2023-09-07T03:35:48;101827.13;;;19.03;100.00
32324;BME280;25666;44.350;9.222;2023-09-07T03:38:14;101816.78;;;19.14;100.00
32324;BME280;25666;44.350;9.222;2023-09-07T03:40:40;101828.81;;;19.07;100.00
32324;BME280;25666;44.350;9.222;2023-09-07T03:43:06;101815.56;;;19.11;100.00
32324;BME280;25666;44.350;9.222;2023-09-07T03:45:32;101812.31;;;19.09;100.00
32324;BME280;25666;44.350;9.222;2023-09-07T03:47:58;101811.91;;;19.11;100.00
32324;BME280;25666;44.350;9.222;2023-09-07T03:50:24;101814.38;;;19.12;100.00
32324;BME280;25666;44.350;9.222;2023-09-07T03:52:50;101795.75;;;19.08;100.00
32324;BME280;25666;44.350;9.222;2023-09-07T03:55:16;101801.94;;;18.87;100.00
32324;BME280;25666;44.350;9.222;2023-09-07T03:57:42;101806.16;;;19.00;100.00
32324;BME280;25666;44.350;9.222;2023-09-07T04:00:08;101808.81;;;18.90;100.00
32324;BME280;25666;44.350;9.222;2023-09-07T04:02:38;101808.84;;;18.93;100.00
32324;BME280;25666;44.350;9.222;2023-09-07T04:05:04;101794.97;;;19.07;100.00
32324;BME280;25666;44.350;9.222;2023-09-07T04:07:31;101804.09;;;18.97;100.00
32324;BME280;25666;44.350;9.222;2023-09-07T04:09:57;101801.38;;;19.04;100.00
32324;BME280;25666;44.350;9.222;2023-09-07T04:12:22;101785.69;;;19.07;100.00
32324;BME280;25666;44.350;9.222;2023-09-07T04:14:48;101790.84;;;19.01;100.00
32324;BME280;25666;44.350;9.222;2023-09-07T04:17:13;101801.91;;;19.13;100.00
32324;BME280;25666;44.350;9.222;2023-09-07T04:19:40;101803.56;;;19.18;100.00
32324;BME280;25666;44.350;9.222;2023-09-07T04:22:05;101792.47;;;19.02;100.00
32324;BME280;25666;44.350;9.222;2023-09-07T04:24:31;101799.53;;;19.19;100.00
32324;BME280;25666;44.350;9.222;2023-09-07T04:27:01;101793.66;;;19.01;100.00
32324;BME280;25666;44.350;9.222;2023-09-07T04:29:27;101790.59;;;19.13;100.00
32324;BME280;25666;44.350;9.222;2023-09-07T04:31:53;101802.22;;;19.08;100.00
32324;BME280;25666;44.350;9.222;2023-09-07T04:34:21;101796.31;;;19.20;100.00
32324;BME280;25666;44.350;9.222;2023-09-07T04:36:47;101801.03;;;19.09;100.00
32324;BME280;25666;44.350;9.222;2023-09-07T04:39:12;101798.91;;;19.33;100.00
32324;BME280;25666;44.350;9.222;2023-09-07T04:41:40;101797.16;;;18.91;100.00
32324;BME280;25666;44.350;9.222;2023-09-07T04:44:06;101801.03;;;19.09;100.00
32324;BME280;25666;44.350;9.222;2023-09-07T04:46:31;101800.97;;;19.06;100.00
32324;BME280;25666;44.350;9.222;2023-09-07T04:48:57;101807.97;;;19.15;100.00
32324;BME280;25666;44.350;9.222;2023-09-07T04:51:23;101809.66;;;19.20;100.00
32324;BME280;25666;44.350;9.222;2023-09-07T04:53:51;101817.72;;;19.21;100.00
32324;BME280;25666;44.350;9.222;2023-09-07T04:56:16;101805.28;;;19.26;100.00
32324;BME280;25666;44.350;9.222;2023-09-07T04:58:42;101812.59;;;19.31;100.00
32324;BME280;25666;44.350;9.222;2023-09-07T05:01:10;101819.53;;;19.07;100.00
32324;BME280;25666;44.350;9.222;2023-09-07T05:03:37;101814.13;;;19.24;100.00
32324;BME280;25666;44.350;9.222;2023-09-07T05:06:04;101812.28;;;19.39;100.00
32324;BME280;25666;44.350;9.222;2023-09-07T05:08:30;101819.91;;;19.35;100.00
32324;BME280;25666;44.350;9.222;2023-09-07T05:11:00;101820.47;;;19.44;100.00
32324;BME280;25666;44.350;9.222;2023-09-07T05:13:26;101824.78;;;19.38;100.00
32324;BME280;25666;44.350;9.222;2023-09-07T05:15:54;101826.16;;;19.48;100.00
32324;BME280;25666;44.350;9.222;2023-09-07T05:18:20;101821.69;;;19.47;100.00
32324;BME280;25666;44.350;9.222;2023-09-07T05:20:47;101820.47;;;19.44;100.00
32324;BME280;25666;44.350;9.222;2023-09-07T05:23:20;101827.69;;;19.42;100.00
32324;BME280;25666;44.350;9.222;2023-09-07T05:25:48;101822.06;;;19.42;100.00
32324;BME280;25666;44.350;9.222;2023-09-07T05:28:15;101822.94;;;19.49;100.00
32324;BME280;25666;44.350;9.222;2023-09-07T05:30:42;101832.31;;;19.57;100.00
32324;BME280;25666;44.350;9.222;2023-09-07T05:33:14;101831.09;;;19.54;100.00
32324;BME280;25666;44.350;9.222;2023-09-07T05:35:40;101821.13;;;19.67;100.00
32324;BME280;25666;44.350;9.222;2023-09-07T05:38:08;101825.03;;;19.56;100.00
32324;BME280;25666;44.350;9.222;2023-09-07T05:40:39;101831.97;;;19.62;100.00
32324;BME280;25666;44.350;9.222;2023-09-07T05:43:05;101825.91;;;19.60;100.00
32324;BME280;25666;44.350;9.222;2023-09-07T05:45:34;101828.13;;;19.81;100.00
32324;BME280;25666;44.350;9.222;2023-09-07T05:48:02;101829.06;;;19.92;100.00
32324;BME280;25666;44.350;9.222;2023-09-07T05:50:28;101835.19;;;19.97;100.00
32324;BME280;25666;44.350;9.222;2023-09-07T05:52:54;101828.78;;;20.04;100.00
32324;BME280;25666;44.350;9.222;2023-09-07T05:55:20;101831.06;;;20.28;100.00
32324;BME280;25666;44.350;9.222;2023-09-07T05:57:45;101832.75;;;20.36;100.00
32324;BME280;25666;44.350;9.222;2023-09-07T06:00:12;101828.50;;;20.60;100.00
32324;BME280;25666;44.350;9.222;2023-09-07T06:02:42;101826.16;;;21.34;100.00
32324;BME280;25666;44.350;9.222;2023-09-07T06:05:09;101828.81;;;24.03;100.00
32324;BME280;25666;44.350;9.222;2023-09-07T06:07:36;101825.84;;;26.03;100.00
32324;BME280;25666;44.350;9.222;2023-09-07T06:10:03;101827.94;;;27.19;100.00
32324;BME280;25666;44.350;9.222;2023-09-07T06:12:34;101815.16;;;28.83;96.36
32324;BME280;25666;44.350;9.222;2023-09-07T06:15:00;101817.94;;;29.86;83.77
32324;BME280;25666;44.350;9.222;2023-09-07T06:17:27;101818.31;;;30.98;73.91
32324;BME280;25666;44.350;9.222;2023-09-07T06:19:54;101812.78;;;31.68;65.51
32324;BME280;25666;44.350;9.222;2023-09-07T06:22:19;101809.28;;;32.53;62.15
32324;BME280;25666;44.350;9.222;2023-09-07T06:24:45;101807.13;;;33.21;57.94
32324;BME280;25666;44.350;9.222;2023-09-07T06:27:11;101815.91;;;33.63;54.68
32324;BME280;25666;44.350;9.222;2023-09-07T06:29:36;101809.09;;;33.84;55.25
32324;BME280;25666;44.350;9.222;2023-09-07T06:32:02;101799.47;;;34.29;50.27
32324;BME280;25666;44.350;9.222;2023-09-07T06:34:28;101803.53;;;34.93;45.21
32324;BME280;25666;44.350;9.222;2023-09-07T06:36:54;101800.72;;;35.61;47.86
32324;BME280;25666;44.350;9.222;2023-09-07T06:39:20;101808.47;;;35.84;46.23
32324;BME280;25666;44.350;9.222;2023-09-07T06:41:46;101799.03;;;36.19;41.62
32324;BME280;25666;44.350;9.222;2023-09-07T06:44:13;101812.13;;;35.26;45.37
32324;BME280;25666;44.350;9.222;2023-09-07T06:46:40;101803.88;;;35.48;46.24
32324;BME280;25666;44.350;9.222;2023-09-07T06:49:06;101805.59;;;36.34;41.47
32324;BME280;25666;44.350;9.222;2023-09-07T06:51:32;101812.75;;;36.73;38.83
32324;BME280;25666;44.350;9.222;2023-09-07T06:53:58;101803.03;;;36.96;40.51
32324;BME280;25666;44.350;9.222;2023-09-07T06:56:25;101811.84;;;36.47;43.75
32324;BME280;25666;44.350;9.222;2023-09-07T06:58:52;101806.38;;;37.10;40.93
32324;BME280;25666;44.350;9.222;2023-09-07T07:01:19;101802.16;;;36.90;40.13
32324;BME280;25666;44.350;9.222;2023-09-07T07:03:45;101806.03;;;37.48;39.38
32324;BME280;25666;44.350;9.222;2023-09-07T07:06:11;101803.72;;;37.32;40.25
32324;BME280;25666;44.350;9.222;2023-09-07T07:08:37;101808.88;;;37.22;40.51
32324;BME280;25666;44.350;9.222;2023-09-07T07:11:03;101811.09;;;36.32;45.88
32324;BME280;25666;44.350;9.222;2023-09-07T07:13:29;101805.25;;;34.53;45.82
32324;BME280;25666;44.350;9.222;2023-09-07T07:15:55;101807.34;;;32.50;48.15
32324;BME280;25666;44.350;9.222;2023-09-07T07:18:20;101811.09;;;31.58;48.47
32324;BME280;25666;44.350;9.222;2023-09-07T07:20:46;101807.69;;;30.73;51.41
32324;BME280;25666;44.350;9.222;2023-09-07T07:23:12;101812.81;;;29.52;64.61
32324;BME280;25666;44.350;9.222;2023-09-07T07:25:40;101813.03;;;28.71;78.76
32324;BME280;25666;44.350;9.222;2023-09-07T07:28:07;101803.84;;;28.31;80.45
32324;BME280;25666;44.350;9.222;2023-09-07T07:30:34;101811.03;;;28.03;92.12
32324;BME280;25666;44.350;9.222;2023-09-07T07:33:00;101815.91;;;27.87;90.50
32324;BME280;25666;44.350;9.222;2023-09-07T07:35:26;101803.28;;;27.48;86.37
32324;BME280;25666;44.350;9.222;2023-09-07T07:37:52;101803.56;;;27.34;78.36
32324;BME280;25666;44.350;9.222;2023-09-07T07:40:18;101820.41;;;27.09;92.35
32324;BME280;25666;44.350;9.222;2023-09-07T07:42:44;101819.63;;;27.08;100.00
32324;BME280;25666;44.350;9.222;2023-09-07T07:45:12;101810.00;;;26.76;100.00
32324;BME280;25666;44.350;9.222;2023-09-07T07:47:38;101810.56;;;26.67;100.00
32324;BME280;25666;44.350;9.222;2023-09-07T07:50:05;101812.56;;;26.47;90.85
32324;BME280;25666;44.350;9.222;2023-09-07T07:52:30;101810.19;;;26.42;83.35
32324;BME280;25666;44.350;9.222;2023-09-07T07:54:57;101814.41;;;26.34;89.36
32324;BME280;25666;44.350;9.222;2023-09-07T07:57:23;101807.09;;;26.33;90.54
32324;BME280;25666;44.350;9.222;2023-09-07T07:59:48;101810.59;;;26.17;100.00
32324;BME280;25666;44.350;9.222;2023-09-07T08:02:14;101805.09;;;26.03;100.00
32324;BME280;25666;44.350;9.222;2023-09-07T08:04:40;101805.19;;;25.96;100.00
32324;BME280;25666;44.350;9.222;2023-09-07T08:07:05;101803.63;;;25.91;100.00
32324;BME280;25666;44.350;9.222;2023-09-07T08:09:34;101807.84;;;25.83;100.00
32324;BME280;25666;44.350;9.222;2023-09-07T08:12:00;101806.97;;;25.86;100.00
32324;BME280;25666;44.350;9.222;2023-09-07T08:14:30;101811.31;;;25.94;100.00
32324;BME280;25666;44.350;9.222;2023-09-07T08:16:57;101812.59;;;25.93;100.00
32324;BME280;25666;44.350;9.222;2023-09-07T08:19:23;101815.75;;;25.99;100.00
32324;BME280;25666;44.350;9.222;2023-09-07T08:21:49;101815.84;;;25.92;100.00
32324;BME280;25666;44.350;9.222;2023-09-07T08:24:14;101815.31;;;26.00;100.00
32324;BME280;25666;44.350;9.222;2023-09-07T08:26:40;101819.69;;;26.08;96.30
32324;BME280;25666;44.350;9.222;2023-09-07T08:29:06;101825.50;;;26.28;88.31
32324;BME280;25666;44.350;9.222;2023-09-07T08:31:33;101824.38;;;26.22;94.28
32324;BME280;25666;44.350;9.222;2023-09-07T08:34:00;101824.91;;;26.40;81.61
32324;BME280;25666;44.350;9.222;2023-09-07T08:36:27;101825.47;;;26.78;76.39
32324;BME280;25666;44.350;9.222;2023-09-07T08:38:54;101830.97;;;27.12;75.86
32324;BME280;25666;44.350;9.222;2023-09-07T08:41:21;101824.81;;;27.33;70.02
32324;BME280;25666;44.350;9.222;2023-09-07T08:43:49;101821.22;;;27.29;71.38
32324;BME280;25666;44.350;9.222;2023-09-07T08:46:20;101820.19;;;27.00;100.00
32324;BME280;25666;44.350;9.222;2023-09-07T08:48:47;101830.66;;;26.87;100.00
32324;BME280;25666;44.350;9.222;2023-09-07T08:51:18;101825.69;;;26.91;100.00
32324;BME280;25666;44.350;9.222;2023-09-07T08:53:45;101823.59;;;26.68;100.00
32324;BME280;25666;44.350;9.222;2023-09-07T08:56:16;101827.75;;;26.63;100.00
32324;BME280;25666;44.350;9.222;2023-09-07T08:58:42;101821.84;;;26.51;100.00
32324;BME280;25666;44.350;9.222;2023-09-07T09:01:07;101825.41;;;26.58;100.00
32324;BME280;25666;44.350;9.222;2023-09-07T09:03:35;101822.84;;;26.64;97.62
32324;BME280;25666;44.350;9.222;2023-09-07T09:06:01;101820.69;;;26.48;98.19
32324;BME280;25666;44.350;9.222;2023-09-07T09:08:27;101819.06;;;26.47;96.75
32324;BME280;25666;44.350;9.222;2023-09-07T09:11:02;101814.38;;;26.37;100.00
32324;BME280;25666;44.350;9.222;2023-09-07T09:13:32;101817.06;;;26.44;100.00
32324;BME280;25666;44.350;9.222;2023-09-07T09:16:01;101817.66;;;26.59;100.00
32324;BME280;25666;44.350;9.222;2023-09-07T09:18:28;101806.03;;;26.46;100.00
32324;BME280;25666;44.350;9.222;2023-09-07T09:20:55;101816.16;;;26.51;99.84
32324;BME280;25666;44.350;9.222;2023-09-07T09:23:21;101812.06;;;26.52;97.52
32324;BME280;25666;44.350;9.222;2023-09-07T09:25:50;101817.19;;;26.60;96.37
32324;BME280;25666;44.350;9.222;2023-09-07T09:28:15;101812.88;;;26.52;93.39
32324;BME280;25666;44.350;9.222;2023-09-07T09:30:41;101814.34;;;26.60;95.31
32324;BME280;25666;44.350;9.222;2023-09-07T09:33:09;101809.03;;;26.63;92.74
32324;BME280;25666;44.350;9.222;2023-09-07T09:35:35;101812.13;;;26.72;86.31
32324;BME280;25666;44.350;9.222;2023-09-07T09:38:01;101810.38;;;26.54;91.06
32324;BME280;25666;44.350;9.222;2023-09-07T09:40:31;101814.66;;;26.66;87.21
32324;BME280;25666;44.350;9.222;2023-09-07T09:42:59;101813.72;;;26.73;88.20
32324;BME280;25666;44.350;9.222;2023-09-07T09:45:26;101815.53;;;26.63;90.75
32324;BME280;25666;44.350;9.222;2023-09-07T09:47:54;101814.44;;;26.80;84.18
32324;BME280;25666;44.350;9.222;2023-09-07T09:50:22;101801.31;;;26.83;87.02
32324;BME280;25666;44.350;9.222;2023-09-07T09:52:48;101801.06;;;26.74;91.31
32324;BME280;25666;44.350;9.222;2023-09-07T09:55:15;101802.97;;;26.57;96.00
32324;BME280;25666;44.350;9.222;2023-09-07T09:57:41;101796.91;;;26.55;89.12
32324;BME280;25666;44.350;9.222;2023-09-07T10:00:07;101792.94;;;26.49;95.07
32324;BME280;25666;44.350;9.222;2023-09-07T10:05:37;101788.97;;;26.43;98.03
32324;BME280;25666;44.350;9.222;2023-09-07T10:08:14;101784.56;;;26.61;92.56
32324;BME280;25666;44.350;9.222;2023-09-07T10:10:46;101783.94;;;26.50;90.17
32324;BME280;25666;44.350;9.222;2023-09-07T10:13:16;101784.84;;;26.44;94.73
32324;BME280;25666;44.350;9.222;2023-09-07T10:16:05;101783.38;;;26.59;90.14
32324;BME280;25666;44.350;9.222;2023-09-07T10:18:36;101779.50;;;26.69;85.75
32324;BME280;25666;44.350;9.222;2023-09-07T10:21:02;101781.94;;;26.94;84.77
32324;BME280;25666;44.350;9.222;2023-09-07T10:23:40;101776.00;;;27.04;81.47
32324;BME280;25666;44.350;9.222;2023-09-07T10:26:15;101773.44;;;27.10;84.81
32324;BME280;25666;44.350;9.222;2023-09-07T10:28:42;101761.09;;;27.13;90.01
32324;BME280;25666;44.350;9.222;2023-09-07T10:31:18;101766.13;;;27.09;92.64
32324;BME280;25666;44.350;9.222;2023-09-07T10:33:45;101763.91;;;26.97;93.90
32324;BME280;25666;44.350;9.222;2023-09-07T10:36:25;101752.03;;;27.38;84.05
32324;BME280;25666;44.350;9.222;2023-09-07T10:38:51;101758.88;;;27.44;88.60
32324;BME280;25666;44.350;9.222;2023-09-07T10:41:18;101748.53;;;27.50;83.22
32324;BME280;25666;44.350;9.222;2023-09-07T10:43:49;101752.69;;;27.45;86.69
32324;BME280;25666;44.350;9.222;2023-09-07T10:46:14;101746.25;;;27.22;95.06
32324;BME280;25666;44.350;9.222;2023-09-07T10:48:43;101743.69;;;27.07;98.95
32324;BME280;25666;44.350;9.222;2023-09-07T10:51:08;101744.28;;;27.19;91.88
32324;BME280;25666;44.350;9.222;2023-09-07T10:53:34;101735.63;;;27.02;99.22
32324;BME280;25666;44.350;9.222;2023-09-07T10:56:03;101738.03;;;27.04;100.00
32324;BME280;25666;44.350;9.222;2023-09-07T10:58:34;101739.72;;;27.01;100.00
32324;BME280;25666;44.350;9.222;2023-09-07T11:01:00;101743.25;;;26.89;100.00
32324;BME280;25666;44.350;9.222;2023-09-07T11:03:27;101734.06;;;27.18;100.00
32324;BME280;25666;44.350;9.222;2023-09-07T11:05:56;101728.72;;;27.20;100.00
32324;BME280;25666;44.350;9.222;2023-09-07T11:08:23;101738.75;;;26.88;100.00
32324;BME280;25666;44.350;9.222;2023-09-07T11:10:50;101725.94;;;27.16;97.87
32324;BME280;25666;44.350;9.222;2023-09-07T11:13:17;101733.72;;;27.16;100.00
32324;BME280;25666;44.350;9.222;2023-09-07T11:15:42;101731.50;;;27.23;100.00
32324;BME280;25666;44.350;9.222;2023-09-07T11:18:08;101727.56;;;27.17;97.62
32324;BME280;25666;44.350;9.222;2023-09-07T11:20:36;101722.94;;;27.23;96.19
32324;BME280;25666;44.350;9.222;2023-09-07T11:23:02;101725.03;;;27.19;98.45
32324;BME280;25666;44.350;9.222;2023-09-07T11:25:37;101721.97;;;27.30;99.41
32324;BME280;25666;44.350;9.222;2023-09-07T11:28:04;101718.81;;;27.24;99.82
32324;BME280;25666;44.350;9.222;2023-09-07T11:30:34;101726.59;;;27.04;100.00
32324;BME280;25666;44.350;9.222;2023-09-07T11:33:05;101718.03;;;27.24;100.00
32324;BME280;25666;44.350;9.222;2023-09-07T11:35:31;101711.81;;;27.09;100.00
32324;BME280;25666;44.350;9.222;2023-09-07T11:38:00;101709.78;;;27.45;97.90
32324;BME280;25666;44.350;9.222;2023-09-07T11:40:26;101711.97;;;27.57;98.39
32324;BME280;25666;44.350;9.222;2023-09-07T11:42:51;101716.88;;;27.57;97.03
32324;BME280;25666;44.350;9.222;2023-09-07T11:45:17;101705.72;;;27.62;97.87
32324;BME280;25666;44.350;9.222;2023-09-07T11:47:44;101712.00;;;27.74;94.59
32324;BME280;25666;44.350;9.222;2023-09-07T11:50:10;101701.69;;;27.44;100.00
32324;BME280;25666;44.350;9.222;2023-09-07T11:52:36;101700.94;;;27.20;100.00
32324;BME280;25666;44.350;9.222;2023-09-07T11:55:01;101697.59;;;27.41;98.58
32324;BME280;25666;44.350;9.222;2023-09-07T11:57:29;101699.72;;;27.57;98.29
32324;BME280;25666;44.350;9.222;2023-09-07T11:59:55;101697.34;;;27.72;98.84
32324;BME280;25666;44.350;9.222;2023-09-07T12:02:21;101695.59;;;27.58;100.00
32324;BME280;25666;44.350;9.222;2023-09-07T12:04:47;101692.69;;;27.42;100.00
32324;BME280;25666;44.350;9.222;2023-09-07T12:07:14;101692.84;;;27.54;100.00
32324;BME280;25666;44.350;9.222;2023-09-07T12:09:40;101692.69;;;27.42;100.00
32324;BME280;25666;44.350;9.222;2023-09-07T12:12:06;101694.34;;;27.43;100.00
32324;BME280;25666;44.350;9.222;2023-09-07T12:14:31;101687.59;;;27.33;100.00
32324;BME280;25666;44.350;9.222;2023-09-07T12:16:57;101680.16;;;27.36;100.00
32324;BME280;25666;44.350;9.222;2023-09-07T12:19:23;101682.22;;;27.35;100.00
32324;BME280;25666;44.350;9.222;2023-09-07T12:21:48;101677.09;;;27.79;100.00
32324;BME280;25666;44.350;9.222;2023-09-07T12:24:14;101679.19;;;27.78;100.00
32324;BME280;25666;44.350;9.222;2023-09-07T12:26:39;101675.16;;;27.76;100.00
32324;BME280;25666;44.350;9.222;2023-09-07T12:29:05;101674.47;;;27.88;100.00
32324;BME280;25666;44.350;9.222;2023-09-07T12:31:31;101665.16;;;27.84;100.00
32324;BME280;25666;44.350;9.222;2023-09-07T12:33:57;101671.22;;;28.02;100.00
32324;BME280;25666;44.350;9.222;2023-09-07T12:36:22;101663.59;;;27.63;100.00
32324;BME280;25666;44.350;9.222;2023-09-07T12:38:48;101666.47;;;27.47;100.00
32324;BME280;25666;44.350;9.222;2023-09-07T12:41:14;101673.63;;;27.55;100.00
32324;BME280;25666;44.350;9.222;2023-09-07T12:43:41;101672.47;;;27.52;100.00